createdAt,value
2024-01-14T00:01:24.051Z,7.03
2024-01-14T00:03:51.319Z,7.88
2024-01-14T00:06:18.444Z,7.53
2024-01-14T00:08:45.165Z,7.63
2024-01-14T00:11:11.770Z,7.95
2024-01-14T00:13:38.452Z,7.82
2024-01-14T00:16:05.320Z,7.70
2024-01-14T00:18:32.132Z,7.13
2024-01-14T00:20:58.801Z,7.35
2024-01-14T00:23:25.450Z,7.80
2024-01-14T00:25:52.159Z,7.47
2024-01-14T00:28:18.809Z,7.07
2024-01-14T00:30:45.804Z,6.88
2024-01-14T00:33:12.640Z,7.28
2024-01-14T00:35:41.551Z,7.30
2024-01-14T00:38:09.680Z,6.55
2024-01-14T00:40:37.280Z,6.57
2024-01-14T00:43:04.330Z,6.88
2024-01-14T00:45:31.113Z,6.55
2024-01-14T00:47:58.292Z,6.97
2024-01-14T00:50:25.081Z,6.75
2024-01-14T00:52:51.719Z,6.80
2024-01-14T00:55:18.466Z,6.72
2024-01-14T00:57:45.072Z,7.18
2024-01-14T01:00:12.163Z,6.90
2024-01-14T01:02:38.848Z,7.57
2024-01-14T01:05:05.867Z,7.28
2024-01-14T01:07:32.515Z,7.53
2024-01-14T01:09:59.384Z,7.35
2024-01-14T01:12:26.101Z,7.47
2024-01-14T01:14:52.812Z,6.88
2024-01-14T01:17:20.373Z,7.03
2024-01-14T01:19:47.616Z,7.32
2024-01-14T01:22:14.500Z,7.32
2024-01-14T01:24:41.280Z,7.15
2024-01-14T01:27:08.021Z,7.47
2024-01-14T01:29:34.676Z,6.88
2024-01-14T01:32:07.552Z,7.47
2024-01-14T01:34:35.671Z,7.38
2024-01-14T01:37:03.579Z,6.88
2024-01-14T01:39:30.432Z,6.78
2024-01-14T01:41:57.210Z,6.38
2024-01-14T01:44:24.644Z,6.18
2024-01-14T01:46:51.724Z,6.90
2024-01-14T01:49:18.714Z,6.47
2024-01-14T01:51:51.283Z,5.78
2024-01-14T01:54:27.972Z,6.70
2024-01-14T01:56:55.645Z,6.57
2024-01-14T01:59:23.151Z,5.70
2024-01-14T02:01:50.069Z,5.93
2024-01-14T02:04:17.627Z,6.25
2024-01-14T02:06:44.989Z,6.82
2024-01-14T02:09:12.710Z,5.57
2024-01-14T02:11:39.419Z,5.22
2024-01-14T02:14:06.819Z,5.53
2024-01-14T02:16:33.468Z,5.32
2024-01-14T02:19:00.387Z,5.72
2024-01-14T02:21:33.619Z,5.30
2024-01-14T02:24:30.710Z,5.22
2024-01-14T02:26:58.009Z,5.18
2024-01-14T02:29:25.276Z,5.53
2024-01-14T02:31:51.968Z,5.38
2024-01-14T02:34:18.955Z,5.68
2024-01-14T02:36:45.818Z,5.20
2024-01-14T02:39:12.670Z,4.80
2024-01-14T02:41:39.401Z,5.43
2024-01-14T02:44:06.495Z,5.28
2024-01-14T02:46:33.176Z,5.32
2024-01-14T02:48:59.941Z,5.15
2024-01-14T02:51:26.787Z,4.65
2024-01-14T02:53:53.635Z,5.38
2024-01-14T02:56:20.343Z,5.35
2024-01-14T02:58:47.179Z,5.55
2024-01-14T03:01:14.226Z,5.53
2024-01-14T03:03:41.176Z,5.07
2024-01-14T03:06:08.741Z,5.15
2024-01-14T03:08:36.675Z,4.95
2024-01-14T03:11:03.440Z,5.28
2024-01-14T03:13:30.076Z,5.10
2024-01-14T03:15:57.723Z,5.03
2024-01-14T03:18:24.710Z,4.57
2024-01-14T03:20:51.604Z,4.53
2024-01-14T03:23:18.266Z,4.95
2024-01-14T03:25:45.028Z,5.03
2024-01-14T03:28:11.654Z,4.53
2024-01-14T03:30:38.367Z,4.43
2024-01-14T03:33:05.298Z,5.22
2024-01-14T03:35:32.099Z,4.18
2024-01-14T03:37:58.805Z,4.40
2024-01-14T03:40:25.494Z,4.35
2024-01-14T03:42:52.449Z,4.65
2024-01-14T03:45:19.150Z,4.35
2024-01-14T03:47:45.881Z,4.22
2024-01-14T03:50:12.548Z,4.38
2024-01-14T03:52:39.797Z,5.00
2024-01-14T03:55:06.803Z,4.82
2024-01-14T03:57:33.559Z,4.90
2024-01-14T04:00:00.848Z,5.18
2024-01-14T04:02:27.472Z,4.95
2024-01-14T04:04:54.242Z,4.75
2024-01-14T04:07:21.045Z,5.00
2024-01-14T04:09:47.738Z,5.13
2024-01-14T04:12:14.505Z,5.57
2024-01-14T04:14:41.141Z,4.70
2024-01-14T04:17:07.990Z,5.07
2024-01-14T04:19:34.845Z,5.43
2024-01-14T04:22:01.472Z,6.03
2024-01-14T04:24:28.171Z,5.72
2024-01-14T04:26:54.853Z,5.78
2024-01-14T04:29:21.579Z,5.85
2024-01-14T04:31:48.198Z,5.63
2024-01-14T04:34:14.879Z,5.95
2024-01-14T04:36:41.601Z,5.60
2024-01-14T04:39:09.131Z,5.55
2024-01-14T04:41:36.009Z,5.57
2024-01-14T04:44:03.248Z,5.18
2024-01-14T04:46:29.928Z,5.68
2024-01-14T04:48:56.960Z,5.38
2024-01-14T04:51:23.867Z,5.72
2024-01-14T04:53:50.678Z,5.30
2024-01-14T04:56:17.431Z,5.93
2024-01-14T04:58:44.112Z,6.30
2024-01-14T05:01:10.879Z,5.10
2024-01-14T05:03:37.795Z,5.28
2024-01-14T05:06:05.335Z,5.07
2024-01-14T05:08:32.186Z,5.20
2024-01-14T05:10:59.719Z,4.45
2024-01-14T05:13:26.353Z,4.55
2024-01-14T05:15:53.028Z,4.90
2024-01-14T05:18:19.857Z,4.85
2024-01-14T05:20:46.591Z,4.95
2024-01-14T05:23:13.223Z,4.60
2024-01-14T05:25:39.893Z,4.18
2024-01-14T05:28:06.983Z,4.30
2024-01-14T05:30:33.850Z,4.28
2024-01-14T05:33:00.734Z,4.40
2024-01-14T05:35:27.452Z,4.03
2024-01-14T05:37:54.489Z,4.20
2024-01-14T05:40:21.162Z,3.70
2024-01-14T05:42:47.811Z,4.07
2024-01-14T05:45:14.705Z,3.65
2024-01-14T05:47:42.132Z,3.92
2024-01-14T05:50:09.456Z,3.80
2024-01-14T05:52:36.374Z,3.75
2024-01-14T05:55:04.181Z,3.95
2024-01-14T05:57:32.009Z,3.90
2024-01-14T05:59:58.840Z,4.00
2024-01-14T06:02:25.580Z,3.75
2024-01-14T06:04:52.565Z,4.05
2024-01-14T06:07:20.396Z,4.00
2024-01-14T06:09:47.238Z,3.60
2024-01-14T06:12:15.515Z,4.70
2024-01-14T06:14:42.241Z,3.88
2024-01-14T06:17:09.932Z,3.72
2024-01-14T06:19:36.786Z,4.15
2024-01-14T06:22:04.276Z,3.50
2024-01-14T06:24:31.074Z,4.00
2024-01-14T06:26:57.937Z,3.80
2024-01-14T06:29:25.289Z,3.85
2024-01-14T06:31:52.141Z,3.78
2024-01-14T06:34:18.996Z,3.83
2024-01-14T06:36:45.884Z,3.47
2024-01-14T06:39:12.655Z,4.10
2024-01-14T06:41:39.371Z,3.58
2024-01-14T06:44:06.124Z,3.30
2024-01-14T06:46:32.779Z,3.13
2024-01-14T06:48:59.935Z,3.63
2024-01-14T06:51:26.752Z,3.58
2024-01-14T06:53:54.291Z,3.72
2024-01-14T06:56:20.933Z,3.60
2024-01-14T06:58:50.871Z,3.67
2024-01-14T07:01:17.902Z,3.60
2024-01-14T07:03:44.788Z,3.00
2024-01-14T07:06:11.736Z,3.08
2024-01-14T07:08:38.541Z,3.60
2024-01-14T07:11:06.847Z,3.40
2024-01-14T07:13:33.718Z,2.95
2024-01-14T07:16:00.559Z,2.88
2024-01-14T07:18:27.493Z,3.25
2024-01-14T07:20:54.320Z,2.88
2024-01-14T07:23:42.860Z,3.22
2024-01-14T07:26:21.739Z,2.88
2024-01-14T07:28:52.541Z,2.57
2024-01-14T07:31:22.646Z,2.65
2024-01-14T07:33:54.205Z,2.92
2024-01-14T07:36:21.355Z,2.75
2024-01-14T07:38:48.716Z,2.65
2024-01-14T07:41:16.825Z,2.80
2024-01-14T07:43:44.760Z,2.38
2024-01-14T07:46:12.479Z,2.28
2024-01-14T07:48:40.086Z,2.67
2024-01-14T07:51:06.961Z,3.10
2024-01-14T07:53:33.668Z,2.78
2024-01-14T07:56:01.663Z,2.67
2024-01-14T07:58:28.303Z,2.70
2024-01-14T08:01:01.596Z,2.72
2024-01-14T08:03:31.479Z,3.40
2024-01-14T08:05:59.054Z,3.10
2024-01-14T08:08:25.868Z,3.05
2024-01-14T08:10:53.505Z,2.78
2024-01-14T08:13:21.397Z,2.90
2024-01-14T08:15:57.304Z,2.50
2024-01-14T08:18:29.314Z,2.72
2024-01-14T08:20:56.370Z,2.75
2024-01-14T08:23:23.075Z,2.72
2024-01-14T08:25:49.778Z,2.63
2024-01-14T08:28:16.412Z,3.15
2024-01-14T08:30:43.220Z,2.83
2024-01-14T08:33:10.225Z,2.45
2024-01-14T08:35:36.942Z,3.40
2024-01-14T08:38:03.710Z,3.80
2024-01-14T08:40:30.436Z,3.55
2024-01-14T08:42:57.168Z,3.88
2024-01-14T08:45:23.912Z,3.47
2024-01-14T08:47:51.621Z,3.25
2024-01-14T08:50:19.869Z,3.83
2024-01-14T08:52:46.505Z,3.25
2024-01-14T08:55:13.126Z,3.63
2024-01-14T08:57:40.559Z,3.95
2024-01-14T09:00:08.287Z,3.20
2024-01-14T09:02:34.925Z,4.63
2024-01-14T09:05:02.666Z,3.50
2024-01-14T09:07:29.348Z,3.38
2024-01-14T09:09:56.895Z,3.22
2024-01-14T09:12:24.571Z,2.78
2024-01-14T09:14:51.198Z,3.00
2024-01-14T09:17:17.831Z,2.70
2024-01-14T09:19:45.799Z,3.10
2024-01-14T09:22:12.652Z,2.92
2024-01-14T09:24:44.898Z,3.22
2024-01-14T09:27:12.240Z,2.72
2024-01-14T09:29:38.929Z,2.72
2024-01-14T09:32:06.557Z,2.67
2024-01-14T09:34:33.354Z,2.80
2024-01-14T09:37:00.078Z,3.10
2024-01-14T09:39:26.728Z,3.00
2024-01-14T09:42:08.153Z,2.55
2024-01-14T09:44:35.732Z,2.90
2024-01-14T09:47:03.709Z,2.65
2024-01-14T09:49:30.722Z,2.83
2024-01-14T09:51:57.665Z,3.20
2024-01-14T09:54:24.423Z,3.20
2024-01-14T09:56:54.301Z,2.92
2024-01-14T09:59:22.433Z,4.32
2024-01-14T10:01:51.740Z,3.33
2024-01-14T10:04:18.696Z,4.70
2024-01-14T10:06:45.840Z,4.07
2024-01-14T10:09:12.681Z,4.40
2024-01-14T10:11:39.525Z,3.80
2024-01-14T10:14:06.242Z,4.30
2024-01-14T10:16:51.858Z,3.92
2024-01-14T10:19:22.497Z,4.15
2024-01-14T10:22:12.946Z,3.97
2024-01-14T10:24:36.320Z,4.28
2024-01-14T10:27:04.058Z,4.65
2024-01-14T10:29:31.500Z,3.85
2024-01-14T10:31:58.202Z,3.92
2024-01-14T10:34:28.749Z,3.53
2024-01-14T10:37:02.196Z,3.97
2024-01-14T10:39:33.211Z,4.10
2024-01-14T10:42:01.012Z,3.92
2024-01-14T10:44:27.981Z,4.03
2024-01-14T10:46:55.456Z,3.80
2024-01-14T10:49:26.167Z,3.85
2024-01-14T10:55:05.203Z,3.67
2024-01-14T10:57:36.367Z,3.58
2024-01-14T11:00:06.467Z,3.50
2024-01-14T11:02:35.068Z,3.58
2024-01-14T11:05:02.004Z,3.60
2024-01-14T11:07:29.701Z,3.70
2024-01-14T11:09:57.793Z,3.50
2024-01-14T11:12:36.990Z,3.20
2024-01-14T11:15:15.145Z,4.00
2024-01-14T11:17:44.488Z,3.47
2024-01-14T11:20:21.194Z,3.97
2024-01-14T11:22:54.091Z,3.67
2024-01-14T11:25:24.327Z,3.58
2024-01-14T11:27:54.993Z,2.97
2024-01-14T11:30:47.972Z,2.72
2024-01-14T11:33:33.144Z,3.10
2024-01-14T11:36:01.888Z,3.15
2024-01-14T11:38:35.699Z,3.10
2024-01-14T11:41:27.563Z,3.53
2024-01-14T11:44:00.051Z,3.45
2024-01-14T11:46:44.934Z,3.33
2024-01-14T11:49:24.639Z,3.45
2024-01-14T11:51:55.800Z,3.47
2024-01-14T11:54:23.948Z,2.97
2024-01-14T11:56:50.866Z,3.30
2024-01-14T11:59:30.199Z,4.10
2024-01-14T12:02:15.026Z,4.07
2024-01-14T12:04:41.908Z,4.20
2024-01-14T12:07:08.836Z,4.55
2024-01-14T12:09:35.931Z,4.70
2024-01-14T12:12:10.394Z,4.78
2024-01-14T12:14:38.856Z,5.95
2024-01-14T12:17:12.056Z,5.13
2024-01-14T12:19:39.061Z,4.70
2024-01-14T12:22:07.102Z,5.00
2024-01-14T12:24:33.808Z,4.20
2024-01-14T12:27:00.686Z,4.65
2024-01-14T12:29:31.475Z,4.20
2024-01-14T12:31:59.650Z,3.97
2024-01-14T12:34:26.581Z,5.60
2024-01-14T12:36:54.717Z,4.82
2024-01-14T12:39:22.483Z,5.55
2024-01-14T12:41:54.285Z,5.53
2024-01-14T12:44:23.461Z,6.13
2024-01-14T12:46:57.196Z,6.05
2024-01-14T12:49:26.459Z,5.03
2024-01-14T12:52:05.253Z,4.97
2024-01-14T12:54:32.682Z,4.35
2024-01-14T12:57:23.443Z,4.50
2024-01-14T12:59:51.913Z,4.15
2024-01-14T13:02:19.107Z,4.20
2024-01-14T13:04:45.952Z,4.30
2024-01-14T13:07:13.862Z,4.90
2024-01-14T13:09:41.880Z,4.93
2024-01-14T13:12:08.943Z,4.90
2024-01-14T13:14:35.606Z,4.80
2024-01-14T13:17:03.339Z,4.78
2024-01-14T13:19:30.170Z,4.82
2024-01-14T13:21:57.013Z,5.85
2024-01-14T13:24:24.311Z,5.85
2024-01-14T13:26:51.650Z,5.78
2024-01-14T13:29:19.574Z,5.45
2024-01-14T13:31:46.449Z,5.13
2024-01-14T13:34:15.176Z,5.13
2024-01-14T13:36:42.082Z,4.50
2024-01-14T13:39:08.830Z,4.20
2024-01-14T13:41:35.601Z,3.58
2024-01-14T13:44:13.033Z,3.80
2024-01-14T13:46:45.088Z,3.40
2024-01-14T13:49:12.083Z,3.58
2024-01-14T13:51:41.920Z,3.78
2024-01-14T13:54:13.345Z,3.63
2024-01-14T13:56:42.448Z,3.50
2024-01-14T13:59:10.481Z,3.95
2024-01-14T14:01:39.442Z,3.97
2024-01-14T14:04:07.462Z,4.15
2024-01-14T14:06:37.981Z,4.20
2024-01-14T14:09:07.963Z,3.80
2024-01-14T14:11:35.449Z,3.78
2024-01-14T14:14:02.245Z,3.80
2024-01-14T14:16:39.056Z,3.72
2024-01-14T14:19:09.108Z,3.33
2024-01-14T14:21:50.615Z,3.72
2024-01-14T14:24:23.792Z,3.55
2024-01-14T14:26:50.783Z,3.80
2024-01-14T14:29:19.522Z,3.65
2024-01-14T14:31:49.817Z,4.93
2024-01-14T14:34:20.237Z,4.38
2024-01-14T14:36:48.446Z,4.00
2024-01-14T14:39:15.468Z,4.45
2024-01-14T14:41:42.315Z,4.60
2024-01-14T14:44:11.204Z,3.70
2024-01-14T14:46:38.574Z,5.70
2024-01-14T14:49:06.341Z,6.03
2024-01-14T14:51:38.692Z,4.68
2024-01-14T14:54:08.617Z,4.80
2024-01-14T14:56:35.657Z,4.30
2024-01-14T14:59:02.508Z,4.20
2024-01-14T15:01:37.726Z,4.10
2024-01-14T15:04:11.201Z,3.38
2024-01-14T15:06:39.531Z,3.60
2024-01-14T15:09:09.082Z,3.72
2024-01-14T15:11:39.264Z,3.30
2024-01-14T15:14:10.847Z,3.60
2024-01-14T15:19:04.813Z,3.38
2024-01-14T15:21:32.635Z,3.20
2024-01-14T15:24:01.131Z,3.33
2024-01-14T15:26:29.078Z,3.35
2024-01-14T15:28:55.819Z,3.38
2024-01-14T15:31:22.598Z,9.48
2024-01-14T15:33:50.570Z,12.55
2024-01-14T15:36:18.870Z,11.90
2024-01-14T15:38:46.501Z,7.93
2024-01-14T15:41:13.377Z,7.82
2024-01-14T15:43:40.621Z,7.55
2024-01-14T15:46:07.310Z,6.85
2024-01-14T15:48:41.064Z,6.55
2024-01-14T15:51:11.529Z,5.57
2024-01-14T15:53:40.921Z,5.75
2024-01-14T15:56:07.909Z,5.43
2024-01-14T15:58:42.158Z,5.47
2024-01-14T16:01:13.075Z,5.28
2024-01-14T16:03:44.205Z,4.30
2024-01-14T16:06:13.188Z,4.70
2024-01-14T16:08:39.944Z,4.80
2024-01-14T16:11:07.837Z,4.53
2024-01-14T16:13:36.332Z,4.60
2024-01-14T16:16:04.775Z,4.32
2024-01-14T16:18:31.801Z,4.10
2024-01-14T16:21:03.729Z,3.88
2024-01-14T16:23:34.477Z,3.85
2024-01-14T16:26:01.922Z,4.00
2024-01-14T16:28:28.734Z,4.13
2024-01-14T16:31:08.597Z,3.80
2024-01-14T16:33:44.036Z,3.70
2024-01-14T16:36:12.319Z,3.60
2024-01-14T16:38:39.316Z,3.65
2024-01-14T16:41:06.864Z,4.30
2024-01-14T16:43:37.803Z,4.97
2024-01-14T16:46:07.756Z,4.82
2024-01-14T16:48:35.149Z,4.80
2024-01-14T16:51:08.736Z,4.47
2024-01-14T16:53:39.777Z,4.43
2024-01-14T16:56:07.782Z,4.47
2024-01-14T16:58:37.637Z,4.05
2024-01-14T17:01:14.617Z,4.20
2024-01-14T17:03:46.403Z,4.00
2024-01-14T17:06:15.687Z,4.05
2024-01-14T17:08:45.039Z,3.97
2024-01-14T17:11:14.637Z,4.03
2024-01-14T17:13:41.715Z,3.67
2024-01-14T17:16:10.638Z,3.78
2024-01-14T17:18:40.272Z,3.95
2024-01-14T17:21:08.913Z,3.80
2024-01-14T17:23:35.987Z,3.97
2024-01-14T17:26:08.118Z,3.58
2024-01-14T17:28:40.500Z,3.70
2024-01-14T17:31:12.314Z,3.80
2024-01-14T17:33:40.946Z,3.40
2024-01-14T17:36:11.486Z,3.72
2024-01-14T17:38:38.826Z,3.75
2024-01-14T17:41:06.445Z,4.03
2024-01-14T17:43:33.115Z,3.42
2024-01-14T17:46:07.088Z,3.65
2024-01-14T17:48:41.345Z,3.50
2024-01-14T17:51:10.311Z,3.55
2024-01-14T17:53:42.530Z,3.55
2024-01-14T17:56:09.488Z,3.80
2024-01-14T17:58:36.164Z,3.78
2024-01-14T18:01:03.441Z,3.55
2024-01-14T18:03:30.585Z,3.80
2024-01-14T18:05:57.551Z,3.80
2024-01-14T18:08:24.534Z,3.70
2024-01-14T18:10:51.894Z,3.90
2024-01-14T18:13:18.940Z,4.38
2024-01-14T18:15:46.885Z,3.45
2024-01-14T18:18:15.910Z,3.53
2024-01-14T18:20:45.568Z,3.60
2024-01-14T18:23:14.113Z,3.78
2024-01-14T18:25:42.788Z,3.55
2024-01-14T18:28:09.777Z,3.85
2024-01-14T18:30:36.704Z,3.90
2024-01-14T18:33:10.632Z,3.70
2024-01-14T18:35:41.841Z,4.45
2024-01-14T18:38:10.069Z,6.22
2024-01-14T18:40:36.847Z,7.72
2024-01-14T18:43:04.249Z,9.68
2024-01-14T18:45:31.331Z,13.73
2024-01-14T18:47:59.845Z,13.68
2024-01-14T18:50:28.549Z,13.18
2024-01-14T18:52:57.279Z,12.32
2024-01-14T18:55:24.853Z,10.85
2024-01-14T18:57:51.620Z,11.07
2024-01-14T19:00:18.588Z,10.13
2024-01-14T19:02:46.768Z,10.70
2024-01-14T19:05:15.025Z,10.20
2024-01-14T19:07:42.060Z,9.73
2024-01-14T19:10:10.293Z,9.48
2024-01-14T19:12:37.689Z,9.30
2024-01-14T19:15:06.107Z,9.40
2024-01-14T19:17:33.110Z,9.20
2024-01-14T19:20:00.732Z,9.45
2024-01-14T19:22:28.100Z,9.50
2024-01-14T19:24:55.413Z,9.23
2024-01-14T19:27:22.714Z,9.68
2024-01-14T19:29:49.672Z,9.18
2024-01-14T19:32:16.656Z,8.50
2024-01-14T19:34:43.870Z,8.95
2024-01-14T19:37:11.274Z,8.57
2024-01-14T19:39:41.351Z,8.55
2024-01-14T19:42:10.030Z,8.77
2024-01-14T19:44:37.260Z,9.07
2024-01-14T19:47:04.369Z,8.25
2024-01-14T19:49:31.348Z,8.25
2024-01-14T19:51:58.312Z,8.20
2024-01-14T19:54:27.928Z,8.35
2024-01-14T19:56:54.959Z,9.23
2024-01-14T19:59:22.295Z,9.02
2024-01-14T20:01:49.797Z,9.05
2024-01-14T20:04:16.986Z,9.13
2024-01-14T20:06:49.651Z,8.57
2024-01-14T20:09:22.905Z,8.68
2024-01-14T20:11:51.300Z,8.77
2024-01-14T20:14:18.309Z,8.13
2024-01-14T20:16:46.805Z,8.15
2024-01-14T20:19:13.817Z,9.00
2024-01-14T20:21:43.651Z,8.80
2024-01-14T20:24:16.314Z,8.27
2024-01-14T20:26:43.507Z,8.65
2024-01-14T20:29:10.253Z,8.45
2024-01-14T20:31:37.894Z,8.35
2024-01-14T20:34:05.021Z,7.93
2024-01-14T20:36:32.525Z,8.70
2024-01-14T20:38:59.209Z,8.15
2024-01-14T20:41:25.973Z,10.13
2024-01-14T20:43:52.758Z,12.90
2024-01-14T20:46:20.292Z,12.80
2024-01-14T20:48:49.990Z,12.63
2024-01-14T20:51:17.437Z,11.23
2024-01-14T20:53:44.748Z,10.20
2024-01-14T20:56:11.734Z,10.27
2024-01-14T20:58:38.528Z,8.90
2024-01-14T21:01:05.792Z,8.63
2024-01-14T21:03:32.933Z,8.40
2024-01-14T21:05:59.803Z,8.57
2024-01-14T21:08:26.597Z,7.90
2024-01-14T21:10:54.597Z,7.55
2024-01-14T21:13:21.630Z,7.63
2024-01-14T21:15:49.740Z,7.28
2024-01-14T21:18:17.017Z,6.25
2024-01-14T21:20:44.246Z,6.20
2024-01-14T21:23:10.931Z,5.90
2024-01-14T21:25:37.518Z,6.30
2024-01-14T21:28:05.479Z,6.00
2024-01-14T21:30:32.417Z,5.90
2024-01-14T21:32:59.477Z,5.85
2024-01-14T21:35:27.358Z,6.00
2024-01-14T21:37:54.019Z,5.70
2024-01-14T21:40:22.021Z,6.10
2024-01-14T21:42:49.307Z,5.78
2024-01-14T21:45:19.048Z,6.53
2024-01-14T21:47:45.916Z,5.85
2024-01-14T21:50:12.725Z,7.15
2024-01-14T21:52:39.561Z,6.93
2024-01-14T21:55:06.240Z,7.28
2024-01-14T21:57:33.632Z,6.97
2024-01-14T22:00:00.530Z,6.53
2024-01-14T22:02:27.472Z,6.90
2024-01-14T22:04:54.233Z,6.78
2024-01-14T22:07:20.973Z,7.18
2024-01-14T22:09:47.906Z,6.97
2024-01-14T22:12:15.442Z,6.50
2024-01-14T22:14:44.026Z,6.78
2024-01-14T22:17:11.766Z,6.63
2024-01-14T22:19:43.631Z,6.70
2024-01-14T22:22:11.559Z,7.63
2024-01-14T22:24:38.313Z,6.38
2024-01-14T22:27:05.278Z,6.57
2024-01-14T22:29:31.952Z,6.53
2024-01-14T22:31:58.725Z,7.32
2024-01-14T22:34:26.417Z,6.38
2024-01-14T22:36:53.862Z,6.47
2024-01-14T22:39:21.976Z,6.00
2024-01-14T22:41:49.665Z,6.18
2024-01-14T22:44:16.797Z,6.60
2024-01-14T22:46:43.504Z,5.85
2024-01-14T22:49:10.413Z,6.05
2024-01-14T22:51:46.674Z,5.72
2024-01-14T22:54:14.322Z,5.38
2024-01-14T22:56:41.285Z,5.60
2024-01-14T22:59:09.433Z,5.75
2024-01-14T23:01:36.437Z,5.30
2024-01-14T23:04:03.679Z,5.53
2024-01-14T23:06:31.240Z,5.75
2024-01-14T23:08:57.950Z,5.47
2024-01-14T23:11:24.555Z,5.63
2024-01-14T23:13:51.254Z,4.93
2024-01-14T23:16:17.924Z,6.05
2024-01-14T23:18:44.857Z,5.80
2024-01-14T23:21:11.685Z,5.00
2024-01-14T23:23:38.331Z,4.82
2024-01-14T23:26:05.096Z,5.03
2024-01-14T23:28:31.773Z,4.75
2024-01-14T23:30:58.549Z,5.00
2024-01-14T23:33:25.463Z,4.65
2024-01-14T23:35:52.200Z,4.80
2024-01-14T23:38:18.885Z,4.45
2024-01-14T23:40:45.569Z,4.03
2024-01-14T23:43:12.212Z,4.70
2024-01-14T23:45:40.185Z,4.10
2024-01-14T23:48:07.803Z,3.88
2024-01-14T23:50:34.727Z,3.85
2024-01-14T23:53:01.599Z,4.15
2024-01-14T23:55:28.258Z,4.10
2024-01-14T23:57:55.093Z,3.88
